Ana Sayfa
METAR-TAF:

METAR-TAF

Havaalanları :

Quaqtaq, Quebec, Kanada

Enlem: 61-03N, Boylam: 069-38W, yükseklik: 30 m

Güncel hava durumu gözlemi

Rapor saat 15:00 UTC de 1 saat ve 14 dakika önce yapıldı.
Rüzgar güneybatıdan 13 kt
Sıcaklık -21°C
Nem 77%
Basınç 998 hPa
Görüş mesafesi: 24.1 km
2300 ft yükseklikte az bulutlu
4500 ft yükseklikte parçalı çok bulutlu
25000 ft yükseklikte çok bulutlu

METAR: CYHA 021500Z 22013KT 15SM FEW023 BKN045 OVC250 M21/M24 A2948 RMK SC2SC5CI1 SLP988

Saat: 11:14 (16:14 UTC)

Tahmin

Rapor saat 14:40 UTC de 1 saat ve 34 dakika önce yapıldı.
Ayın 02'si saat 15 UTC'den ayın 02'si saat 22 UTC'ye kadar geçerli Tahmin
Rüzgar güneybatıdan 8 kt
Görüş mesafesi: 10 km
2000 ft yükseklikte az bulutlu
4000 ft yükseklikte parçalı çok bulutlu
Geçici
ayın 02'si saat 15 UTC'den ayın 02'si saat 22 UTC'ye kadar
4000 ft yükseklikte parçalı bulutlu

TAF: CYHA 021440Z 0215/0222 22008KT P6SM FEW020 BKN040 TEMPO 0215/0222 SCT040 RMK NXT FCST BY 031500Z

4.000'den fazla havaalanı için hava durumu gözlemleri ve tahminleri (METAR ve TAF raporları).

Kullanılabilir istasyonlar harita üzerinde sarı ve kırmızı noktalarla gösterilir.

İstasyonun adını görmek için fareyi noktanın üzerinde gezdirin.

Sonrasında hava gözlem ve tahminlerini görmek için tıklayın.

Haritayı değiştirmek için: yaklaştırmak için siyah artı işaretli yeşil düğmeye ve uzaklaştırmak için de eksi işaretli düğmeye hızla tıklayın; bitişik haritalar için yeşil okları kullanın.


METAR-TAF: